ジャージー島 の空港の天気 - METARとTAF

ジャージー空港 ( EGJJ / JER ) - ジャージー島 ジャージー島
飛行場実況気象(Metar)
観測時間09/18 01:50 BST (09/18 00:50 UTC)
風向・風速東北東 6m/s
視程10km以上
天気現象
なし
気温14℃
湿度82%
気圧1025hPa
METAREGJJ 180050Z AUTO 07012KT 9999 NCD 14/11 Q1025
過去の天気等 Google飛行場航空写真 Wunderground天気予報

過去48時間のMETAR

飛行場予報(TAF)
発表時間: 9/18 00:02 BST (9/17 23:02 UTC)
予報対象時間: 18日1時 BST ~ 18日10時 BST
風向・風速東北東 7m/s
視程10km以上
なし
TAF EGJJ 172302Z 1800/1809 06014KT CAVOK